logo dgac
Jueves 24 de Enero del 2019
Buscar por aerodromo o helipuerto
Ingrese nombre de aeródromo, localidad o designador OACI:

Aeródromo: La Araucania (SCQP)

Ubicación: Freire, IX Región, Chile (38º 55' 33'' S, 72º 39' 05'' W) Ver ubicación en el mapa

Pistas

Orientación Dimensión Pendiente Superficie Resistencia APCH THR RWY PAPI
01/19 2440 x 45 0,10 ASFALTO 50/F/C/X/T
Horas de operación HJ
Elevación 321 FT (98m) ft
Otra Información Adm : DGAC
Uso : PUB
Ubicado a 20 Km al S de Temuco
Teléfonos : 452554926 ARO / 452554927 METEOROLOGÍA / 452554900 CENTRAL TELEFÓNICA.

Otra información ver AIP CHILE VOL I AD 3.9-6.1-F
CCCM/FCCV Descargar
andera de Chile
Mapa de La Araucania  (SCQP)

Último METAR

METAR SCQP 240400Z VRB02KT CAVOK 10/08 Q1014

Último TAF

TAF SCQP 240403Z 2406/2506 VRB02KT CAVOK TN05/2410Z TX25/2419Z TEMPO 2408/2411 1500 BR SCT002 BECMG 2413/2415 20005KT BECMG 2417/2419 25010KT BECMG 2501/2503 28005KT 9999 SCT006

Últimas fotos cámaras

Imagen aerodromo La Araucania  (SCQP) Sur tomada el 24-01-2019 02:02:45 Imagen aerodromo La Araucania  (SCQP) Norte tomada el 24-01-2019 02:06:38

Último NOTAM

C0213/19 NOTAMN Q)SCTZ/QFMLT/IV/BO/A/000/999/3856S07239W005 A)SCQP B)1901240130 C)1901240830 E)EMA U/S INCLUIDO RVR DEBIDO A INSTL DE EQPT ELECTRONICOS EN BLDG DGAC AD

LLegadas a La Araucania (SCQP)

En vuelo

Vuelo Procedencia Hora Despegue Local Hora Arribo Local

Salidas de La Araucania (SCQP)

En vuelo

Vuelo Hacia Hora Despegue Local Hora Arribo Local